首页
METAR-TAF:

METAR-TAF

机场 :

Shearwater, 新斯科舍, 加拿大

纬度: 44-38N, 经度: 063-30W, 海拔: 51米

当前天气观测

该预报发布于14小时和58分钟前的18:41 UTC
风速8节,风向
温度 8°C
湿度 93%
气压 1013 hPa
能見度: 24.1公里
散云层高于4000英尺
多云层高于15000英尺

METAR: CYAW 161841Z 18008KT 15SM SCT040 BKN150 08/07 A2990 RMK CU4AC1 DENSITY ALT -523FT SLP127

时间: 06:39 (09:39 UTC)

预报

该预报发布于21小时和59分钟前的11:40 UTC
预报有效从16日的 12点(UTC)到 16日的 24点(UTC)
风速3节,风向多变
能見度: 10公里
多云层高于6000英尺
阴天层高于21000英尺
短暂存在
从 16日的 12点(UTC)到 16日的 14点(UTC)
能見度: 9.7公里
散云层高于600英尺
多云层高于4000英尺
阴天层高于6000英尺
小阵雨, 轻雾
从 16日的 1400点(UTC)
风速3节,风向多变
能見度: 10公里
散云层高于6000英尺
从 16日的 1700点(UTC)
风速8节,风向
能見度: 10公里
多云层高于4000英尺
短暂存在
从 16日的 17点(UTC)到 16日的 24点(UTC)
能見度: 10公里
小阵雨
几率 30%
从 16日的 17点(UTC)到 16日的 24点(UTC)
能見度: 3.2公里
多云层高于600英尺
轻雾

TAF: CYAW 161140Z 1612/1624 VRB03KT P6SM BKN060 OVC210 TEMPO 1612/1614 6SM -SHRA BR SCT006 BKN040 OVC060 FM161400 VRB03KT P6SM SCT060 FM161700 18008KT P6SM BKN040 TEMPO 1617/1624 P6SM -SHRA PROB30 1617/1624 2SM BR BKN006 RMK NXT FCST BY 161800Z

超过4000个机场的气象观测和天气预报(METAR&TAF报告)。

可查询的气象台以黄色和红色小点在地图上表示。

将鼠标移到小点上方,可查看气象台名称。

然后点击查看天气观测和预报。

如需切换地图:点击带黑十字的绿色按钮放大地图;点击带横线的绿色按钮缩小地图;或者点击绿色箭头查看邻近地区的地图。


METAR-TAF: